Presque Isle, MI (49777)

11:29 AM EDT on April 25, 2017 (GMT -0400)
Lotus Lake | | Change Station

Elev 617 ft 45.30 °N, 83.48 °W | Updated 16 seconds ago

Mostly Cloudy
Mostly Cloudy
47.1 °F
Feels Like 41 °F
N
15.0
Wind Variable Wind from ESE

Today
High -- | Low -- °F
--% Chance of Precip.
Yesterday
High -- | Low -- °F
Precip. -- in
Pressure 29.88 in
Visibility 10.0 miles
Clouds Overcast 6000 ft
Windchill 41 °F
Dew Point 41 °F
Humidity 80%
Rainfall 0.00 in
Snow Depth Not available.
6:31 AM 8:33 PM
Waning Crescent, 1% visible
METAR KAPN 251454Z AUTO 11011KT 10SM OVC060 12/06 A2987 RMK AO2 SLP119 T01170056 58014
Pressure 29.88 in
Visibility 10.0 miles
Clouds Overcast 6000 ft
Windchill 41 °F
Dew Point 41 °F
Humidity 80%
Rainfall 0.00 in
Snow Depth Not available.
6:31 AM 8:33 PM
Waning Crescent, 1% visible
METAR KAPN 251454Z AUTO 11011KT 10SM OVC060 12/06 A2987 RMK AO2 SLP119 T01170056 58014

Get Severe Weather Alerts

Thanks for signing up!

Be on the lookout for a verification email in your inbox.

You'll start receiving the daily forecast at 8 AM.

×

10-Day Weather Forecast

Almanac

Astronomy

Apr. 25, 2017 Rise Set
Actual Time
Civil Twilight
Nautical Twilight
Astronomical Twilight
Moon
Length of Visible Light
Length of Day
Tomorrow will be .
, % of the Moon is Illuminated

Today's Extremes

State Highs State Lows

Community

WunderPhotos

WunderBlog® & News

Nearby

Air Quality

  Air Quality AQ Index Pollutant
Not available.

Snow Depth

Station Depth Elevation

Earthquake Activity

City Distance Mag. Time & Date
Minimum magnitude displayed is 2.5.

Coastal Water Temperatures

Place Temperature

Stations

Nearby Weather Stations

Station Location Temp. Windchill Dew Point Humidity Wind Precip. Elev Updated Type
                   

Watches & Warnings

There are currently no watches in effect.